Terminal Aerodrome Forecast
Issued by NWS Chicago, IL

Home | Current Version | Previous Version | Graphics & Text | Print | Product List | Glossary On
Versions: 1 2 3 4 5 6 7 8 9 10 11 12 13 14 15 16 17 18 19 20 21 22 23 24 25 26 27 28 29 30 31 32 33 34 35 36 37 38
000
FTUS43 KLOT 010100 AAA
TAFRFD
TAF AMD
KRFD 010139Z 0102/0124 VRB05KT 1 1/2SM -SN BR SCT007 OVC015
      TEMPO 0102/0103 3SM -RA
     FM010400 02007KT 1SM -SN BR OVC007
     FM010700 05011KT 1/2SM SN OVC007
     FM011500 06018G29KT 1/2SM SN BLSN OVC005
     FM011900 04020G32KT 1/2SM -SN BLSN OVC005=

USA.gov is the U.S. government's official web portal to all federal, state and local government web resources and services.